Date,TemperatureHighF,TemperatureAvgF,TemperatureLowF,DewpointHighF,DewpointAvgF,DewpointLowF,HumidityHigh,HumidityAvg,HumidityLow,PressureMaxIn,PressureMinIn,WindSpeedMaxMPH,WindSpeedAvgMPH,GustSpeedMaxMPH,PrecipitationSumIn
2013-4-1,63.9,52.6,39.6,34.7,29.0,17.5,64,42,17,29.87,29.74,28,5,30,0.00
2013-4-2,61.4,48.4,31.3,35.1,30.2,24.4,80,52,30,30.00,29.84,22,3,23,0.00
2013-4-3,71.2,54.5,29.7,34.9,28.8,22.8,84,43,17,30.10,29.95,15,3,16,0.00
2013-4-4,73.7,57.0,36.0,31.4,26.0,19.3,61,34,14,30.06,29.83,19,2,22,0.00
2013-4-5,71.3,58.9,43.7,37.1,30.9,24.3,58,36,22,29.87,29.69,19,3,21,0.00
2013-4-6,72.2,56.8,37.5,36.9,29.6,22.6,71,39,16,29.86,29.72,21,3,22,0.00
2013-4-7,71.0,56.3,36.1,34.4,24.2,13.2,67,33,12,29.81,29.55,24,4,31,0.00
2013-4-8,58.2,45.9,33.4,40.6,33.9,16.3,100,70,22,29.55,29.13,31,3,31,0.19
2013-4-9,47.1,39.8,33.1,35.3,24.6,19.1,100,58,36,30.01,29.43,32,8,33,0.00
2013-4-10,59.9,45.4,31.2,28.3,22.4,17.7,61,42,22,30.12,29.97,21,4,22,0.00
2013-4-11,66.3,50.7,34.2,37.5,31.1,26.8,77,49,26,30.01,29.73,20,2,24,0.00
2013-4-12,70.6,55.1,31.5,29.8,23.6,14.7,72,32,15,29.85,29.69,21,3,22,0.00
2013-4-13,72.8,55.8,34.2,35.2,26.8,21.6,64,36,18,29.79,29.44,34,5,34,0.00
2013-4-14,69.7,60.5,49.0,34.1,29.0,21.8,50,32,19,29.54,29.34,25,7,26,0.00
2013-4-15,68.8,57.7,50.5,40.1,32.6,24.5,65,41,20,29.45,29.32,32,6,35,0.00
2013-4-16,52.6,46.2,34.1,33.3,28.0,17.7,81,51,29,29.76,29.36,22,7,31,0.00
2013-4-17,47.1,36.9,26.1,30.1,21.4,10.0,100,60,23,30.20,29.75,22,4,22,0.00
2013-4-18,55.9,42.7,27.5,18.4,15.2,10.0,58,35,19,30.29,30.19,24,5,24,0.00
2013-4-19,64.8,47.6,24.6,24.0,17.9,11.5,61,33,18,30.29,29.96,20,3,21,0.00
2013-4-20,67.2,53.5,35.4,30.9,24.1,15.9,48,33,21,29.99,29.86,18,3,18,0.00
2013-4-21,73.4,57.8,35.3,31.1,25.3,20.5,65,32,15,30.04,29.83,26,4,31,0.00
2013-4-22,76.3,62.8,45.6,29.7,23.6,18.8,35,23,14,29.84,29.58,30,6,30,0.00
2013-4-23,65.8,52.6,42.3,28.4,11.2,-3.2,36,21,8,29.94,29.61,38,7,40,0.00
2013-4-24,69.3,55.1,36.4,12.8,8.5,5.4,29,16,9,29.98,29.84,21,5,21,0.00
2013-4-25,73.1,61.3,52.3,29.3,17.2,8.0,24,18,15,29.89,29.71,18,5,19,0.00
2013-4-26,76.0,59.1,34.6,23.7,16.6,11.4,44,22,10,30.08,29.85,24,3,24,0.00
2013-4-27,80.0,62.8,37.1,24.1,18.5,11.9,40,20,10,30.11,29.85,26,3,27,0.00
2013-4-28,83.2,65.2,38.9,32.8,24.0,15.7,40,22,13,29.93,29.67,19,2,20,0.00
2013-4-29,83.8,68.0,43.6,34.4,24.6,16.6,42,21,11,29.74,29.50,27,4,28,0.00
2013-4-30,82.0,70.9,54.0,31.3,23.6,17.2,29,18,10,29.53,29.40,30,7,31,0.00